createdAt,value
2023-05-09T15:10:24.597Z,27.75
2023-05-09T15:12:51.930Z,27.01
2023-05-09T15:15:20.696Z,27.78
2023-05-09T15:17:47.669Z,27.71
2023-05-09T15:20:18.415Z,27.72
2023-05-09T15:22:49.059Z,28.12
2023-05-09T15:25:16.448Z,27.85
2023-05-09T15:27:43.364Z,28.18
2023-05-09T15:30:10.653Z,28.34
2023-05-09T15:32:39.925Z,28.57
2023-05-09T15:35:07.199Z,28.79
2023-05-09T15:37:35.837Z,28.86
2023-05-09T15:40:03.101Z,28.84
2023-05-09T15:42:30.047Z,29.10
2023-05-09T15:44:57.034Z,29.09
2023-05-09T15:47:23.926Z,29.15
2023-05-09T15:49:50.842Z,29.03
2023-05-09T15:52:18.168Z,28.91
2023-05-09T15:54:45.593Z,28.96
2023-05-09T15:57:42.689Z,29.09
2023-05-09T16:03:59.748Z,29.27
2023-05-09T16:06:28.828Z,29.22
2023-05-09T16:08:55.801Z,29.48
2023-05-09T16:11:22.710Z,29.58
2023-05-09T16:13:49.626Z,29.43
2023-05-09T16:16:16.953Z,29.55
2023-05-09T16:18:43.892Z,29.25
2023-05-09T16:21:10.833Z,28.96
2023-05-09T16:23:39.639Z,29.08
2023-05-09T16:26:06.935Z,29.53
2023-05-09T16:28:33.879Z,29.57
2023-05-09T16:31:04.701Z,29.95
2023-05-09T16:33:32.572Z,29.66
2023-05-09T16:35:59.575Z,29.95
2023-05-09T16:38:26.801Z,29.86
2023-05-09T16:40:53.958Z,29.73
2023-05-09T16:43:20.861Z,30.01
2023-05-09T16:45:50.750Z,30.08
2023-05-09T16:48:17.947Z,30.29
2023-05-09T16:50:45.688Z,30.50
2023-05-09T16:53:12.612Z,30.41
2023-05-09T16:55:40.037Z,30.44
2023-05-09T16:58:08.154Z,30.29
2023-05-09T17:00:35.170Z,30.44
2023-05-09T17:03:02.136Z,30.28
2023-05-09T17:05:29.187Z,30.30
2023-05-09T17:07:56.066Z,30.40
2023-05-09T17:10:22.892Z,30.21
2023-05-09T17:12:50.809Z,30.22
2023-05-09T17:15:17.889Z,30.40
2023-05-09T17:17:47.543Z,30.57
2023-05-09T17:20:14.897Z,30.61
2023-05-09T17:22:42.103Z,30.75
2023-05-09T17:25:09.441Z,30.63
2023-05-09T17:27:37.422Z,30.69
2023-05-09T17:30:05.685Z,30.83
2023-05-09T17:32:32.648Z,30.78
2023-05-09T17:34:59.559Z,31.01
2023-05-09T17:37:26.462Z,30.90
2023-05-09T17:39:54.482Z,30.65
2023-05-09T17:42:21.600Z,30.70
2023-05-09T17:44:48.857Z,30.90
2023-05-09T17:47:16.007Z,31.12
2023-05-09T17:49:43.971Z,31.14
2023-05-09T17:52:10.830Z,31.32
2023-05-09T17:54:37.987Z,31.53
2023-05-09T17:57:04.930Z,31.81
2023-05-09T17:59:32.170Z,31.89
2023-05-09T18:01:59.231Z,32.18
2023-05-09T18:04:27.452Z,32.30
2023-05-09T18:06:54.390Z,32.47
2023-05-09T18:09:22.791Z,32.52
2023-05-09T18:11:50.659Z,32.75
2023-05-09T18:14:17.917Z,32.66
2023-05-09T18:16:44.756Z,32.74
2023-05-09T18:19:11.818Z,32.85
2023-05-09T18:21:39.504Z,32.86
2023-05-09T18:24:09.279Z,33.09
2023-05-09T18:29:34.812Z,33.22
2023-05-09T18:32:02.178Z,33.17
2023-05-09T18:34:29.457Z,33.61
2023-05-09T18:36:57.385Z,33.76
2023-05-09T18:39:24.304Z,33.85
2023-05-09T18:41:51.147Z,33.93
2023-05-09T18:44:18.077Z,34.14
2023-05-09T18:46:45.445Z,34.08
2023-05-09T18:49:12.519Z,34.27
2023-05-09T18:51:39.535Z,34.53
2023-05-09T18:54:07.799Z,34.63
2023-05-09T18:56:39.414Z,35.51
2023-05-09T18:59:07.824Z,35.84
2023-05-09T19:01:34.822Z,36.55
2023-05-09T19:04:02.629Z,37.17
2023-05-09T19:06:29.836Z,37.99
2023-05-09T19:08:56.779Z,38.57
2023-05-09T19:11:23.707Z,39.42
2023-05-09T19:13:50.979Z,39.89
2023-05-09T19:16:19.856Z,40.29
2023-05-09T19:18:46.967Z,40.27
2023-05-09T19:21:15.761Z,40.71
2023-05-09T19:23:42.843Z,41.01
2023-05-09T19:26:10.771Z,41.36
2023-05-09T19:28:37.688Z,41.40
2023-05-09T19:31:04.817Z,41.89
2023-05-09T19:33:31.838Z,42.02
2023-05-09T19:35:58.751Z,42.31
2023-05-09T19:38:25.670Z,42.63
2023-05-09T19:40:52.717Z,43.03
2023-05-09T19:43:19.671Z,43.21
2023-05-09T19:45:46.602Z,43.63
2023-05-09T19:48:15.763Z,43.73
2023-05-09T19:50:43.191Z,43.94
2023-05-09T19:53:10.584Z,44.18
2023-05-09T19:55:38.577Z,44.29
2023-05-09T19:58:05.994Z,44.58
2023-05-09T20:00:33.592Z,45.52
2023-05-09T20:03:00.887Z,46.57
2023-05-09T20:05:28.922Z,46.16
2023-05-09T20:07:57.541Z,46.84
2023-05-09T20:10:24.529Z,46.73
2023-05-09T20:12:53.120Z,46.46
2023-05-09T20:15:20.795Z,46.88
2023-05-09T20:17:48.306Z,47.32
2023-05-09T20:20:15.524Z,48.59
2023-05-09T20:22:42.932Z,49.37
2023-05-09T20:25:10.334Z,49.47
2023-05-09T20:27:37.468Z,49.42
2023-05-09T20:30:04.599Z,49.82
2023-05-09T20:32:32.114Z,50.39
2023-05-09T20:34:59.438Z,50.31
2023-05-09T20:37:26.320Z,49.51
2023-05-09T20:39:53.286Z,48.96
2023-05-09T20:42:20.205Z,48.88
2023-05-09T20:44:47.900Z,49.62
2023-05-09T20:47:14.775Z,50.06
2023-05-09T20:49:41.678Z,51.16
2023-05-09T20:52:08.531Z,51.66
2023-05-09T20:54:35.385Z,51.89
2023-05-09T20:57:02.284Z,51.25
2023-05-09T20:59:29.279Z,51.85
2023-05-09T21:01:56.143Z,51.67
2023-05-09T21:04:23.267Z,52.00
2023-05-09T21:06:50.146Z,51.76
2023-05-09T21:09:17.089Z,51.71
2023-05-09T21:11:44.002Z,52.03
2023-05-09T21:14:11.571Z,52.54
2023-05-09T21:16:38.668Z,52.79
2023-05-09T21:19:06.602Z,53.11
2023-05-09T21:21:33.530Z,52.59
2023-05-09T21:24:03.322Z,52.23
2023-05-09T21:26:30.747Z,53.25
2023-05-09T21:28:57.595Z,54.03
2023-05-09T21:31:24.527Z,54.81
2023-05-09T21:33:52.146Z,54.59
2023-05-09T21:36:19.050Z,54.95
2023-05-09T21:38:45.916Z,55.02
2023-05-09T21:41:12.816Z,55.06
2023-05-09T21:43:39.727Z,54.86
2023-05-09T21:46:06.670Z,54.07
2023-05-09T21:48:33.556Z,53.86
2023-05-09T21:51:03.843Z,54.39
2023-05-09T21:53:30.884Z,53.37
2023-05-09T21:55:57.756Z,52.88
2023-05-09T21:58:24.743Z,53.75
2023-05-09T22:00:51.651Z,54.60
2023-05-09T22:03:18.596Z,54.26
2023-05-09T22:05:45.559Z,54.07
2023-05-09T22:08:12.495Z,54.51
2023-05-09T22:10:39.370Z,54.44
2023-05-09T22:13:06.347Z,54.25
2023-05-09T22:15:33.297Z,53.78
2023-05-09T22:18:00.296Z,55.09
2023-05-09T22:20:27.325Z,55.44
2023-05-09T22:22:54.230Z,55.58
2023-05-09T22:25:21.253Z,56.37
2023-05-09T22:27:48.056Z,56.82
2023-05-09T22:30:15.207Z,56.31
2023-05-09T22:32:43.325Z,56.38
2023-05-09T22:35:10.470Z,56.35
2023-05-09T22:37:37.642Z,56.32
2023-05-09T22:40:05.662Z,55.59
2023-05-09T22:42:34.454Z,56.46
2023-05-09T22:45:10.819Z,57.30
2023-05-09T22:47:37.988Z,57.84
2023-05-09T22:50:05.448Z,58.38
2023-05-09T22:52:32.437Z,58.38
2023-05-09T22:54:59.401Z,58.14
2023-05-09T22:57:26.373Z,57.83
2023-05-09T22:59:53.933Z,57.56
2023-05-09T23:02:21.386Z,58.70
2023-05-09T23:04:48.366Z,58.82
2023-05-09T23:07:15.945Z,58.91
2023-05-09T23:09:42.968Z,59.10
2023-05-09T23:12:10.786Z,58.51
2023-05-09T23:14:38.185Z,57.67
2023-05-09T23:17:05.017Z,57.92
2023-05-09T23:19:32.029Z,58.14
2023-05-09T23:21:59.524Z,58.47
2023-05-09T23:24:26.409Z,58.30
2023-05-09T23:26:53.973Z,58.67
2023-05-09T23:29:20.885Z,57.84
2023-05-09T23:31:48.304Z,58.09
2023-05-09T23:34:15.306Z,58.24
2023-05-09T23:36:42.176Z,57.58
2023-05-09T23:39:09.615Z,57.48
2023-05-09T23:41:36.522Z,57.14
2023-05-09T23:44:03.642Z,58.02
2023-05-09T23:46:30.696Z,58.76
2023-05-09T23:48:57.705Z,59.11
2023-05-09T23:51:24.672Z,57.87
2023-05-09T23:53:51.692Z,59.19
2023-05-09T23:56:18.587Z,60.06
2023-05-09T23:58:45.435Z,59.52
